sensor_id;sensor_type;location;lat;lon;timestamp;temperature;humidity
14786;DHT22;7484;49.906;9.058;2023-03-14T00:01:55;11.20;99.90
14786;DHT22;7484;49.906;9.058;2023-03-14T00:04:22;11.30;99.90
14786;DHT22;7484;49.906;9.058;2023-03-14T00:06:49;11.20;99.90
14786;DHT22;7484;49.906;9.058;2023-03-14T00:09:16;11.20;99.90
14786;DHT22;7484;49.906;9.058;2023-03-14T00:11:43;11.20;99.90
14786;DHT22;7484;49.906;9.058;2023-03-14T00:14:10;11.20;99.90
14786;DHT22;7484;49.906;9.058;2023-03-14T00:16:38;11.20;99.90
14786;DHT22;7484;49.906;9.058;2023-03-14T00:19:05;11.20;99.90
14786;DHT22;7484;49.906;9.058;2023-03-14T00:21:32;11.20;99.90
14786;DHT22;7484;49.906;9.058;2023-03-14T00:23:58;11.20;99.90
14786;DHT22;7484;49.906;9.058;2023-03-14T00:26:25;11.20;99.90
14786;DHT22;7484;49.906;9.058;2023-03-14T00:28:53;11.20;99.90
14786;DHT22;7484;49.906;9.058;2023-03-14T00:31:20;11.20;99.90
14786;DHT22;7484;49.906;9.058;2023-03-14T00:33:51;11.10;99.90
14786;DHT22;7484;49.906;9.058;2023-03-14T00:36:19;11.10;99.90
14786;DHT22;7484;49.906;9.058;2023-03-14T00:38:48;11.10;99.90
14786;DHT22;7484;49.906;9.058;2023-03-14T00:41:17;11.10;99.90
14786;DHT22;7484;49.906;9.058;2023-03-14T00:43:44;11.10;99.90
14786;DHT22;7484;49.906;9.058;2023-03-14T00:46:11;11.00;99.90
14786;DHT22;7484;49.906;9.058;2023-03-14T00:48:38;11.00;99.90
14786;DHT22;7484;49.906;9.058;2023-03-14T00:51:08;11.00;99.90
14786;DHT22;7484;49.906;9.058;2023-03-14T00:53:38;11.00;99.90
14786;DHT22;7484;49.906;9.058;2023-03-14T00:56:07;11.00;99.90
14786;DHT22;7484;49.906;9.058;2023-03-14T00:58:34;10.90;99.90
14786;DHT22;7484;49.906;9.058;2023-03-14T01:01:05;10.90;99.90
14786;DHT22;7484;49.906;9.058;2023-03-14T01:03:32;11.00;99.90
14786;DHT22;7484;49.906;9.058;2023-03-14T01:06:11;11.00;99.90
14786;DHT22;7484;49.906;9.058;2023-03-14T01:08:39;11.00;99.90
14786;DHT22;7484;49.906;9.058;2023-03-14T01:11:07;10.90;99.90
14786;DHT22;7484;49.906;9.058;2023-03-14T01:13:34;10.90;99.90
14786;DHT22;7484;49.906;9.058;2023-03-14T01:16:02;10.90;99.90
14786;DHT22;7484;49.906;9.058;2023-03-14T01:18:30;10.90;99.90
14786;DHT22;7484;49.906;9.058;2023-03-14T01:20:57;10.90;99.90
14786;DHT22;7484;49.906;9.058;2023-03-14T01:23:25;10.90;99.90
14786;DHT22;7484;49.906;9.058;2023-03-14T01:25:52;10.90;99.90
14786;DHT22;7484;49.906;9.058;2023-03-14T01:28:19;10.90;99.90
14786;DHT22;7484;49.906;9.058;2023-03-14T01:30:45;10.90;99.90
14786;DHT22;7484;49.906;9.058;2023-03-14T01:33:12;10.90;99.90
14786;DHT22;7484;49.906;9.058;2023-03-14T01:35:42;10.90;99.90
14786;DHT22;7484;49.906;9.058;2023-03-14T01:38:09;11.00;99.90
14786;DHT22;7484;49.906;9.058;2023-03-14T01:40:43;11.00;99.90
14786;DHT22;7484;49.906;9.058;2023-03-14T01:43:16;10.90;99.90
14786;DHT22;7484;49.906;9.058;2023-03-14T01:46:16;10.90;99.90
14786;DHT22;7484;49.906;9.058;2023-03-14T01:48:49;10.90;99.90
14786;DHT22;7484;49.906;9.058;2023-03-14T01:51:20;10.90;99.90
14786;DHT22;7484;49.906;9.058;2023-03-14T01:53:48;11.00;99.90
14786;DHT22;7484;49.906;9.058;2023-03-14T01:56:18;10.90;99.90
14786;DHT22;7484;49.906;9.058;2023-03-14T01:58:47;10.90;99.90
14786;DHT22;7484;49.906;9.058;2023-03-14T02:01:17;10.90;99.90
14786;DHT22;7484;49.906;9.058;2023-03-14T02:03:47;10.90;99.90
14786;DHT22;7484;49.906;9.058;2023-03-14T02:06:14;10.90;99.90
14786;DHT22;7484;49.906;9.058;2023-03-14T02:08:44;11.00;99.90
14786;DHT22;7484;49.906;9.058;2023-03-14T02:11:17;11.00;99.90
14786;DHT22;7484;49.906;9.058;2023-03-14T02:14:03;11.00;99.90
14786;DHT22;7484;49.906;9.058;2023-03-14T02:16:37;11.00;99.90
14786;DHT22;7484;49.906;9.058;2023-03-14T02:19:32;10.90;99.90
14786;DHT22;7484;49.906;9.058;2023-03-14T02:22:29;10.90;99.90
14786;DHT22;7484;49.906;9.058;2023-03-14T02:25:06;10.90;99.90
14786;DHT22;7484;49.906;9.058;2023-03-14T02:27:36;11.00;99.90
14786;DHT22;7484;49.906;9.058;2023-03-14T02:30:06;10.90;99.90
14786;DHT22;7484;49.906;9.058;2023-03-14T02:32:36;10.90;99.90
14786;DHT22;7484;49.906;9.058;2023-03-14T02:35:08;10.90;99.90
14786;DHT22;7484;49.906;9.058;2023-03-14T02:37:39;10.90;99.90
14786;DHT22;7484;49.906;9.058;2023-03-14T02:40:09;10.90;99.90
14786;DHT22;7484;49.906;9.058;2023-03-14T02:42:39;10.90;99.90
14786;DHT22;7484;49.906;9.058;2023-03-14T02:45:41;10.90;99.90
14786;DHT22;7484;49.906;9.058;2023-03-14T02:48:12;10.90;99.90
14786;DHT22;7484;49.906;9.058;2023-03-14T02:50:41;10.80;99.90
14786;DHT22;7484;49.906;9.058;2023-03-14T02:53:08;10.80;99.90
14786;DHT22;7484;49.906;9.058;2023-03-14T02:55:35;10.90;99.90
14786;DHT22;7484;49.906;9.058;2023-03-14T02:58:10;10.90;99.90
14786;DHT22;7484;49.906;9.058;2023-03-14T03:00:36;10.90;99.90
14786;DHT22;7484;49.906;9.058;2023-03-14T03:03:05;10.90;99.90
14786;DHT22;7484;49.906;9.058;2023-03-14T03:05:32;10.90;99.90
14786;DHT22;7484;49.906;9.058;2023-03-14T03:07:59;10.90;99.90
14786;DHT22;7484;49.906;9.058;2023-03-14T03:10:27;10.90;99.90
14786;DHT22;7484;49.906;9.058;2023-03-14T03:12:54;10.90;99.90
14786;DHT22;7484;49.906;9.058;2023-03-14T03:15:25;10.80;99.90
14786;DHT22;7484;49.906;9.058;2023-03-14T03:17:52;10.80;99.90
14786;DHT22;7484;49.906;9.058;2023-03-14T03:20:19;10.70;99.90
14786;DHT22;7484;49.906;9.058;2023-03-14T03:22:46;10.70;99.90
14786;DHT22;7484;49.906;9.058;2023-03-14T03:25:14;10.80;99.90
14786;DHT22;7484;49.906;9.058;2023-03-14T03:27:40;10.80;99.90
14786;DHT22;7484;49.906;9.058;2023-03-14T03:30:09;10.80;99.90
14786;DHT22;7484;49.906;9.058;2023-03-14T03:32:37;10.80;99.90
14786;DHT22;7484;49.906;9.058;2023-03-14T03:35:05;10.80;99.90
14786;DHT22;7484;49.906;9.058;2023-03-14T03:37:36;10.80;99.90
14786;DHT22;7484;49.906;9.058;2023-03-14T03:40:06;10.70;99.90
14786;DHT22;7484;49.906;9.058;2023-03-14T03:42:34;10.70;99.90
14786;DHT22;7484;49.906;9.058;2023-03-14T03:45:03;10.70;99.90
14786;DHT22;7484;49.906;9.058;2023-03-14T03:47:32;10.70;99.90
14786;DHT22;7484;49.906;9.058;2023-03-14T03:50:00;10.70;99.90
14786;DHT22;7484;49.906;9.058;2023-03-14T03:52:26;10.70;99.90
14786;DHT22;7484;49.906;9.058;2023-03-14T03:54:53;10.70;99.90
14786;DHT22;7484;49.906;9.058;2023-03-14T03:57:20;10.70;99.90
14786;DHT22;7484;49.906;9.058;2023-03-14T03:59:47;10.70;99.90
14786;DHT22;7484;49.906;9.058;2023-03-14T04:02:14;10.60;99.90
14786;DHT22;7484;49.906;9.058;2023-03-14T04:04:40;10.60;99.90
14786;DHT22;7484;49.906;9.058;2023-03-14T04:07:08;10.60;99.90
14786;DHT22;7484;49.906;9.058;2023-03-14T04:09:37;10.60;99.90
14786;DHT22;7484;49.906;9.058;2023-03-14T04:12:09;10.60;99.90
14786;DHT22;7484;49.906;9.058;2023-03-14T04:14:55;10.60;99.90
14786;DHT22;7484;49.906;9.058;2023-03-14T04:17:22;10.60;99.90
14786;DHT22;7484;49.906;9.058;2023-03-14T04:19:49;10.50;99.90
14786;DHT22;7484;49.906;9.058;2023-03-14T04:22:21;10.40;99.90
14786;DHT22;7484;49.906;9.058;2023-03-14T04:24:50;10.40;99.90
14786;DHT22;7484;49.906;9.058;2023-03-14T04:27:18;10.40;99.90
14786;DHT22;7484;49.906;9.058;2023-03-14T04:29:46;10.40;99.90
14786;DHT22;7484;49.906;9.058;2023-03-14T04:32:16;10.40;99.90
14786;DHT22;7484;49.906;9.058;2023-03-14T04:34:42;10.40;99.90
14786;DHT22;7484;49.906;9.058;2023-03-14T04:37:09;10.40;99.90
14786;DHT22;7484;49.906;9.058;2023-03-14T04:39:42;10.40;99.90
14786;DHT22;7484;49.906;9.058;2023-03-14T04:42:21;10.40;99.90
14786;DHT22;7484;49.906;9.058;2023-03-14T04:44:48;10.30;99.90
14786;DHT22;7484;49.906;9.058;2023-03-14T04:47:16;10.40;99.90
14786;DHT22;7484;49.906;9.058;2023-03-14T04:49:45;10.40;99.90
14786;DHT22;7484;49.906;9.058;2023-03-14T04:52:14;10.40;99.90
14786;DHT22;7484;49.906;9.058;2023-03-14T04:54:42;10.40;99.90
14786;DHT22;7484;49.906;9.058;2023-03-14T04:57:09;10.50;99.90
14786;DHT22;7484;49.906;9.058;2023-03-14T04:59:37;10.50;99.90
14786;DHT22;7484;49.906;9.058;2023-03-14T05:02:24;10.50;99.90
14786;DHT22;7484;49.906;9.058;2023-03-14T05:05:14;10.50;99.90
14786;DHT22;7484;49.906;9.058;2023-03-14T05:08:07;10.50;99.90
14786;DHT22;7484;49.906;9.058;2023-03-14T05:11:01;10.50;99.90
14786;DHT22;7484;49.906;9.058;2023-03-14T05:13:47;10.50;99.90
14786;DHT22;7484;49.906;9.058;2023-03-14T05:16:40;10.50;99.90
14786;DHT22;7484;49.906;9.058;2023-03-14T05:19:17;10.50;99.90
14786;DHT22;7484;49.906;9.058;2023-03-14T05:21:57;10.50;99.90
14786;DHT22;7484;49.906;9.058;2023-03-14T05:24:36;10.50;99.90
14786;DHT22;7484;49.906;9.058;2023-03-14T05:27:30;10.50;99.90
14786;DHT22;7484;49.906;9.058;2023-03-14T05:30:21;10.50;99.90
14786;DHT22;7484;49.906;9.058;2023-03-14T05:33:04;10.50;99.90
14786;DHT22;7484;49.906;9.058;2023-03-14T05:35:50;10.50;99.90
14786;DHT22;7484;49.906;9.058;2023-03-14T05:38:36;10.50;99.90
14786;DHT22;7484;49.906;9.058;2023-03-14T05:41:26;10.60;99.90
14786;DHT22;7484;49.906;9.058;2023-03-14T05:44:15;10.60;99.90
14786;DHT22;7484;49.906;9.058;2023-03-14T05:47:00;10.60;99.90
14786;DHT22;7484;49.906;9.058;2023-03-14T05:49:27;10.60;99.90
14786;DHT22;7484;49.906;9.058;2023-03-14T05:52:11;10.70;99.90
14786;DHT22;7484;49.906;9.058;2023-03-14T05:54:47;10.70;99.90
14786;DHT22;7484;49.906;9.058;2023-03-14T05:57:17;10.70;99.90
14786;DHT22;7484;49.906;9.058;2023-03-14T06:00:15;10.70;99.90
14786;DHT22;7484;49.906;9.058;2023-03-14T06:02:55;10.70;99.90
14786;DHT22;7484;49.906;9.058;2023-03-14T06:05:27;10.70;99.90
14786;DHT22;7484;49.906;9.058;2023-03-14T06:07:59;10.70;99.90
14786;DHT22;7484;49.906;9.058;2023-03-14T06:10:27;10.70;99.90
14786;DHT22;7484;49.906;9.058;2023-03-14T06:12:54;10.70;99.90
14786;DHT22;7484;49.906;9.058;2023-03-14T06:15:22;10.70;99.90
14786;DHT22;7484;49.906;9.058;2023-03-14T06:17:51;10.70;99.90
14786;DHT22;7484;49.906;9.058;2023-03-14T06:20:20;10.70;99.90
14786;DHT22;7484;49.906;9.058;2023-03-14T06:22:46;10.70;99.90
14786;DHT22;7484;49.906;9.058;2023-03-14T06:25:14;10.70;99.90
14786;DHT22;7484;49.906;9.058;2023-03-14T06:27:44;10.70;99.90
14786;DHT22;7484;49.906;9.058;2023-03-14T06:30:11;10.70;99.90
14786;DHT22;7484;49.906;9.058;2023-03-14T06:32:39;10.70;99.90
14786;DHT22;7484;49.906;9.058;2023-03-14T06:35:09;10.70;99.90
14786;DHT22;7484;49.906;9.058;2023-03-14T06:37:39;10.70;99.90
14786;DHT22;7484;49.906;9.058;2023-03-14T06:40:07;10.70;99.90
14786;DHT22;7484;49.906;9.058;2023-03-14T06:42:52;10.70;99.90
14786;DHT22;7484;49.906;9.058;2023-03-14T06:45:21;10.70;99.90
14786;DHT22;7484;49.906;9.058;2023-03-14T06:47:49;10.80;99.90
14786;DHT22;7484;49.906;9.058;2023-03-14T06:50:19;10.80;99.90
14786;DHT22;7484;49.906;9.058;2023-03-14T06:52:48;10.80;99.90
14786;DHT22;7484;49.906;9.058;2023-03-14T06:55:20;10.90;99.90
14786;DHT22;7484;49.906;9.058;2023-03-14T06:57:47;10.80;99.90
14786;DHT22;7484;49.906;9.058;2023-03-14T07:00:14;10.70;99.90
14786;DHT22;7484;49.906;9.058;2023-03-14T07:02:41;10.70;99.90
14786;DHT22;7484;49.906;9.058;2023-03-14T07:05:16;10.70;99.90
14786;DHT22;7484;49.906;9.058;2023-03-14T07:07:43;10.60;99.90
14786;DHT22;7484;49.906;9.058;2023-03-14T07:10:10;10.50;99.90
14786;DHT22;7484;49.906;9.058;2023-03-14T07:12:37;10.50;99.90
14786;DHT22;7484;49.906;9.058;2023-03-14T07:15:04;10.50;99.90
14786;DHT22;7484;49.906;9.058;2023-03-14T07:17:32;10.50;99.90
14786;DHT22;7484;49.906;9.058;2023-03-14T07:19:59;10.50;99.90
14786;DHT22;7484;49.906;9.058;2023-03-14T07:22:27;10.50;99.90
14786;DHT22;7484;49.906;9.058;2023-03-14T07:24:54;10.40;99.90
14786;DHT22;7484;49.906;9.058;2023-03-14T07:27:22;10.50;99.90
14786;DHT22;7484;49.906;9.058;2023-03-14T07:29:49;10.40;99.90
14786;DHT22;7484;49.906;9.058;2023-03-14T07:32:16;10.40;99.90
14786;DHT22;7484;49.906;9.058;2023-03-14T07:34:43;10.40;99.90
14786;DHT22;7484;49.906;9.058;2023-03-14T07:37:10;10.50;99.90
14786;DHT22;7484;49.906;9.058;2023-03-14T07:39:38;10.50;99.90
14786;DHT22;7484;49.906;9.058;2023-03-14T07:42:14;10.50;99.90
14786;DHT22;7484;49.906;9.058;2023-03-14T07:45:12;10.50;99.90
14786;DHT22;7484;49.906;9.058;2023-03-14T07:47:39;10.60;99.90
14786;DHT22;7484;49.906;9.058;2023-03-14T07:50:07;10.60;99.90
14786;DHT22;7484;49.906;9.058;2023-03-14T07:52:33;10.60;99.90
14786;DHT22;7484;49.906;9.058;2023-03-14T07:55:02;10.60;99.90
14786;DHT22;7484;49.906;9.058;2023-03-14T07:57:28;10.60;99.90
14786;DHT22;7484;49.906;9.058;2023-03-14T07:59:55;10.70;99.90
14786;DHT22;7484;49.906;9.058;2023-03-14T08:02:22;10.80;99.90
14786;DHT22;7484;49.906;9.058;2023-03-14T08:04:49;10.80;99.90
14786;DHT22;7484;49.906;9.058;2023-03-14T08:07:16;10.90;99.90
14786;DHT22;7484;49.906;9.058;2023-03-14T08:09:43;10.90;99.90
14786;DHT22;7484;49.906;9.058;2023-03-14T08:12:11;10.90;99.90
14786;DHT22;7484;49.906;9.058;2023-03-14T08:14:38;10.90;99.90
14786;DHT22;7484;49.906;9.058;2023-03-14T08:17:05;11.00;99.90
14786;DHT22;7484;49.906;9.058;2023-03-14T08:19:33;11.00;99.90
14786;DHT22;7484;49.906;9.058;2023-03-14T08:22:00;11.10;99.90
14786;DHT22;7484;49.906;9.058;2023-03-14T08:24:28;11.20;99.90
14786;DHT22;7484;49.906;9.058;2023-03-14T08:26:55;11.20;99.90
14786;DHT22;7484;49.906;9.058;2023-03-14T08:29:23;11.20;99.90
14786;DHT22;7484;49.906;9.058;2023-03-14T08:31:50;11.20;99.90
14786;DHT22;7484;49.906;9.058;2023-03-14T08:34:17;11.30;99.90
14786;DHT22;7484;49.906;9.058;2023-03-14T08:36:44;11.40;99.90
14786;DHT22;7484;49.906;9.058;2023-03-14T08:39:11;11.30;99.90
14786;DHT22;7484;49.906;9.058;2023-03-14T08:41:37;11.20;99.90
14786;DHT22;7484;49.906;9.058;2023-03-14T08:44:06;11.30;99.90
14786;DHT22;7484;49.906;9.058;2023-03-14T08:46:35;11.20;99.90
14786;DHT22;7484;49.906;9.058;2023-03-14T08:49:02;11.20;99.90
14786;DHT22;7484;49.906;9.058;2023-03-14T08:51:28;11.20;99.90
14786;DHT22;7484;49.906;9.058;2023-03-14T08:53:55;11.20;99.90
14786;DHT22;7484;49.906;9.058;2023-03-14T08:56:22;11.20;99.90
14786;DHT22;7484;49.906;9.058;2023-03-14T08:58:48;11.20;99.90
14786;DHT22;7484;49.906;9.058;2023-03-14T09:01:16;11.10;99.90
14786;DHT22;7484;49.906;9.058;2023-03-14T09:03:45;11.10;99.90
14786;DHT22;7484;49.906;9.058;2023-03-14T09:06:13;11.00;99.90
14786;DHT22;7484;49.906;9.058;2023-03-14T09:08:43;11.10;99.90
14786;DHT22;7484;49.906;9.058;2023-03-14T09:11:10;11.10;99.90
14786;DHT22;7484;49.906;9.058;2023-03-14T09:13:37;11.10;99.90
14786;DHT22;7484;49.906;9.058;2023-03-14T09:16:04;11.10;99.90
14786;DHT22;7484;49.906;9.058;2023-03-14T09:18:31;11.20;99.90
14786;DHT22;7484;49.906;9.058;2023-03-14T09:20:59;11.30;99.90
14786;DHT22;7484;49.906;9.058;2023-03-14T09:23:25;11.30;99.90
14786;DHT22;7484;49.906;9.058;2023-03-14T09:25:54;11.30;99.90
14786;DHT22;7484;49.906;9.058;2023-03-14T09:28:21;11.30;99.90
14786;DHT22;7484;49.906;9.058;2023-03-14T09:30:48;11.30;99.90
14786;DHT22;7484;49.906;9.058;2023-03-14T09:33:15;11.30;99.90
14786;DHT22;7484;49.906;9.058;2023-03-14T09:35:41;11.30;99.90
14786;DHT22;7484;49.906;9.058;2023-03-14T09:38:09;11.30;99.90
14786;DHT22;7484;49.906;9.058;2023-03-14T09:40:37;11.30;99.90
14786;DHT22;7484;49.906;9.058;2023-03-14T09:43:04;11.40;99.90
14786;DHT22;7484;49.906;9.058;2023-03-14T09:45:33;11.30;99.90
14786;DHT22;7484;49.906;9.058;2023-03-14T09:48:02;11.30;99.90
14786;DHT22;7484;49.906;9.058;2023-03-14T09:50:35;11.30;99.90
14786;DHT22;7484;49.906;9.058;2023-03-14T09:53:05;11.40;99.90
14786;DHT22;7484;49.906;9.058;2023-03-14T09:55:34;11.50;99.90
14786;DHT22;7484;49.906;9.058;2023-03-14T09:58:04;11.40;99.90
14786;DHT22;7484;49.906;9.058;2023-03-14T10:00:35;11.50;99.90
14786;DHT22;7484;49.906;9.058;2023-03-14T10:03:20;11.50;99.90
14786;DHT22;7484;49.906;9.058;2023-03-14T10:05:47;11.60;99.90
14786;DHT22;7484;49.906;9.058;2023-03-14T10:08:14;11.70;99.90
14786;DHT22;7484;49.906;9.058;2023-03-14T10:10:42;11.70;99.90
14786;DHT22;7484;49.906;9.058;2023-03-14T10:13:16;11.80;99.90
14786;DHT22;7484;49.906;9.058;2023-03-14T10:15:47;11.70;99.90
14786;DHT22;7484;49.906;9.058;2023-03-14T10:18:14;11.70;99.90
14786;DHT22;7484;49.906;9.058;2023-03-14T10:20:43;11.80;99.90
14786;DHT22;7484;49.906;9.058;2023-03-14T10:23:23;11.70;99.90
14786;DHT22;7484;49.906;9.058;2023-03-14T10:26:03;11.70;99.90
14786;DHT22;7484;49.906;9.058;2023-03-14T10:28:32;11.70;99.90
14786;DHT22;7484;49.906;9.058;2023-03-14T10:30:59;11.70;99.90
14786;DHT22;7484;49.906;9.058;2023-03-14T10:33:28;11.60;99.90
14786;DHT22;7484;49.906;9.058;2023-03-14T10:35:57;11.50;99.90
14786;DHT22;7484;49.906;9.058;2023-03-14T10:38:27;11.40;99.90
14786;DHT22;7484;49.906;9.058;2023-03-14T10:40:55;11.40;99.90
14786;DHT22;7484;49.906;9.058;2023-03-14T10:43:26;11.40;99.90
14786;DHT22;7484;49.906;9.058;2023-03-14T10:45:55;11.20;99.90
14786;DHT22;7484;49.906;9.058;2023-03-14T10:48:29;11.20;99.90
14786;DHT22;7484;49.906;9.058;2023-03-14T10:51:01;11.00;99.90
14786;DHT22;7484;49.906;9.058;2023-03-14T10:53:33;10.90;99.90
14786;DHT22;7484;49.906;9.058;2023-03-14T10:56:03;10.80;99.90
14786;DHT22;7484;49.906;9.058;2023-03-14T10:58:37;10.80;99.90
14786;DHT22;7484;49.906;9.058;2023-03-14T11:01:25;10.80;99.90
14786;DHT22;7484;49.906;9.058;2023-03-14T11:03:56;10.80;99.90
14786;DHT22;7484;49.906;9.058;2023-03-14T11:06:30;10.80;99.90
14786;DHT22;7484;49.906;9.058;2023-03-14T11:09:03;10.80;99.90
14786;DHT22;7484;49.906;9.058;2023-03-14T11:11:32;10.80;99.90
14786;DHT22;7484;49.906;9.058;2023-03-14T11:14:08;10.80;99.90
14786;DHT22;7484;49.906;9.058;2023-03-14T11:16:45;10.70;99.90
14786;DHT22;7484;49.906;9.058;2023-03-14T11:19:40;10.70;99.90
14786;DHT22;7484;49.906;9.058;2023-03-14T11:22:14;10.60;99.90
14786;DHT22;7484;49.906;9.058;2023-03-14T11:25:06;10.50;99.90
14786;DHT22;7484;49.906;9.058;2023-03-14T11:27:40;10.50;99.90
14786;DHT22;7484;49.906;9.058;2023-03-14T11:30:18;10.50;99.90
14786;DHT22;7484;49.906;9.058;2023-03-14T11:32:46;10.60;99.90
14786;DHT22;7484;49.906;9.058;2023-03-14T11:35:22;10.60;99.90
14786;DHT22;7484;49.906;9.058;2023-03-14T11:37:53;10.60;99.90
14786;DHT22;7484;49.906;9.058;2023-03-14T11:40:22;10.60;99.90
14786;DHT22;7484;49.906;9.058;2023-03-14T11:42:56;10.60;99.90
14786;DHT22;7484;49.906;9.058;2023-03-14T11:45:30;10.60;99.90
14786;DHT22;7484;49.906;9.058;2023-03-14T11:48:09;10.60;99.90
14786;DHT22;7484;49.906;9.058;2023-03-14T11:50:36;10.60;99.90
14786;DHT22;7484;49.906;9.058;2023-03-14T11:53:08;10.60;99.90
14786;DHT22;7484;49.906;9.058;2023-03-14T11:55:37;10.70;99.90
14786;DHT22;7484;49.906;9.058;2023-03-14T11:58:13;10.80;99.90
14786;DHT22;7484;49.906;9.058;2023-03-14T12:00:43;10.70;99.90
14786;DHT22;7484;49.906;9.058;2023-03-14T12:03:17;10.70;99.90
14786;DHT22;7484;49.906;9.058;2023-03-14T12:05:57;10.70;99.90
14786;DHT22;7484;49.906;9.058;2023-03-14T12:08:42;10.70;99.90
14786;DHT22;7484;49.906;9.058;2023-03-14T12:11:17;10.70;99.90
14786;DHT22;7484;49.906;9.058;2023-03-14T12:13:49;10.80;99.90
14786;DHT22;7484;49.906;9.058;2023-03-14T12:16:33;10.90;99.90
14786;DHT22;7484;49.906;9.058;2023-03-14T12:19:29;10.90;99.90
14786;DHT22;7484;49.906;9.058;2023-03-14T12:22:00;11.00;99.90
14786;DHT22;7484;49.906;9.058;2023-03-14T12:24:30;11.00;99.90
14786;DHT22;7484;49.906;9.058;2023-03-14T12:26:59;11.10;99.90
14786;DHT22;7484;49.906;9.058;2023-03-14T12:29:26;11.00;99.90
14786;DHT22;7484;49.906;9.058;2023-03-14T12:32:25;11.10;99.90
14786;DHT22;7484;49.906;9.058;2023-03-14T12:34:52;11.10;99.90
14786;DHT22;7484;49.906;9.058;2023-03-14T12:37:33;11.10;99.90
14786;DHT22;7484;49.906;9.058;2023-03-14T12:40:17;10.90;99.90
14786;DHT22;7484;49.906;9.058;2023-03-14T12:42:54;10.60;99.90
14786;DHT22;7484;49.906;9.058;2023-03-14T12:45:25;10.50;99.90
14786;DHT22;7484;49.906;9.058;2023-03-14T12:48:00;10.40;99.90
14786;DHT22;7484;49.906;9.058;2023-03-14T12:50:34;10.00;99.90
14786;DHT22;7484;49.906;9.058;2023-03-14T12:56:19;9.50;99.90
14786;DHT22;7484;49.906;9.058;2023-03-14T13:01:53;9.40;99.90
14786;DHT22;7484;49.906;9.058;2023-03-14T13:04:28;9.30;99.90
14786;DHT22;7484;49.906;9.058;2023-03-14T13:06:56;9.30;99.90
14786;DHT22;7484;49.906;9.058;2023-03-14T13:09:45;9.30;99.90
14786;DHT22;7484;49.906;9.058;2023-03-14T13:12:16;9.30;99.90
14786;DHT22;7484;49.906;9.058;2023-03-14T13:14:45;9.30;99.90
14786;DHT22;7484;49.906;9.058;2023-03-14T13:17:14;9.30;99.90
14786;DHT22;7484;49.906;9.058;2023-03-14T13:19:43;9.40;99.90
14786;DHT22;7484;49.906;9.058;2023-03-14T13:22:17;9.50;99.90
14786;DHT22;7484;49.906;9.058;2023-03-14T13:24:46;9.60;99.90
14786;DHT22;7484;49.906;9.058;2023-03-14T13:27:17;9.70;99.90
14786;DHT22;7484;49.906;9.058;2023-03-14T13:29:48;9.80;99.90
14786;DHT22;7484;49.906;9.058;2023-03-14T13:32:17;9.90;99.90
14786;DHT22;7484;49.906;9.058;2023-03-14T13:34:47;9.90;99.90
14786;DHT22;7484;49.906;9.058;2023-03-14T13:37:16;9.90;99.90
14786;DHT22;7484;49.906;9.058;2023-03-14T13:39:43;9.90;99.90
14786;DHT22;7484;49.906;9.058;2023-03-14T13:42:15;9.90;99.90
14786;DHT22;7484;49.906;9.058;2023-03-14T13:44:43;9.90;99.90
14786;DHT22;7484;49.906;9.058;2023-03-14T13:47:13;10.00;99.90
14786;DHT22;7484;49.906;9.058;2023-03-14T13:49:41;10.00;99.90
14786;DHT22;7484;49.906;9.058;2023-03-14T13:52:24;9.80;99.90
14786;DHT22;7484;49.906;9.058;2023-03-14T13:54:53;9.70;99.90
14786;DHT22;7484;49.906;9.058;2023-03-14T13:57:20;9.60;99.90
14786;DHT22;7484;49.906;9.058;2023-03-14T13:59:59;9.50;99.90
14786;DHT22;7484;49.906;9.058;2023-03-14T14:02:27;9.50;99.90
14786;DHT22;7484;49.906;9.058;2023-03-14T14:04:54;9.40;99.90
14786;DHT22;7484;49.906;9.058;2023-03-14T14:07:22;9.40;99.90
14786;DHT22;7484;49.906;9.058;2023-03-14T14:09:50;9.30;99.90
14786;DHT22;7484;49.906;9.058;2023-03-14T14:12:21;9.20;99.90
14786;DHT22;7484;49.906;9.058;2023-03-14T14:14:52;9.00;99.90
14786;DHT22;7484;49.906;9.058;2023-03-14T14:17:25;9.10;99.90
14786;DHT22;7484;49.906;9.058;2023-03-14T14:19:52;9.10;99.90
14786;DHT22;7484;49.906;9.058;2023-03-14T14:22:23;9.20;99.90
14786;DHT22;7484;49.906;9.058;2023-03-14T14:24:50;9.30;99.90
14786;DHT22;7484;49.906;9.058;2023-03-14T14:27:19;9.40;99.90
14786;DHT22;7484;49.906;9.058;2023-03-14T14:29:58;9.40;99.90
14786;DHT22;7484;49.906;9.058;2023-03-14T14:32:25;9.50;99.90
14786;DHT22;7484;49.906;9.058;2023-03-14T14:34:57;9.50;99.90
14786;DHT22;7484;49.906;9.058;2023-03-14T14:37:27;9.40;99.90
14786;DHT22;7484;49.906;9.058;2023-03-14T14:39:57;9.40;99.90
14786;DHT22;7484;49.906;9.058;2023-03-14T14:42:26;9.30;99.90
14786;DHT22;7484;49.906;9.058;2023-03-14T14:44:53;9.30;99.90
14786;DHT22;7484;49.906;9.058;2023-03-14T14:47:22;9.30;99.90
14786;DHT22;7484;49.906;9.058;2023-03-14T14:49:51;9.20;99.90
14786;DHT22;7484;49.906;9.058;2023-03-14T14:52:19;9.20;99.90
14786;DHT22;7484;49.906;9.058;2023-03-14T14:54:51;9.20;99.90
14786;DHT22;7484;49.906;9.058;2023-03-14T14:57:23;9.20;99.90
14786;DHT22;7484;49.906;9.058;2023-03-14T14:59:51;9.20;99.90
14786;DHT22;7484;49.906;9.058;2023-03-14T15:02:30;9.20;99.90
14786;DHT22;7484;49.906;9.058;2023-03-14T15:04:59;9.20;99.90
14786;DHT22;7484;49.906;9.058;2023-03-14T15:07:26;9.20;99.90
14786;DHT22;7484;49.906;9.058;2023-03-14T15:09:54;9.10;99.90
14786;DHT22;7484;49.906;9.058;2023-03-14T15:12:21;8.80;99.90
14786;DHT22;7484;49.906;9.058;2023-03-14T15:14:50;8.40;99.90
14786;DHT22;7484;49.906;9.058;2023-03-14T15:17:16;8.10;99.90
14786;DHT22;7484;49.906;9.058;2023-03-14T15:19:43;7.90;99.90
14786;DHT22;7484;49.906;9.058;2023-03-14T15:22:12;7.60;99.90
14786;DHT22;7484;49.906;9.058;2023-03-14T15:24:39;7.50;99.90
14786;DHT22;7484;49.906;9.058;2023-03-14T15:27:13;7.40;99.90
14786;DHT22;7484;49.906;9.058;2023-03-14T15:29:40;7.20;99.90
14786;DHT22;7484;49.906;9.058;2023-03-14T15:32:11;7.10;99.90
14786;DHT22;7484;49.906;9.058;2023-03-14T15:34:38;7.10;99.90
14786;DHT22;7484;49.906;9.058;2023-03-14T15:37:04;7.00;99.90
14786;DHT22;7484;49.906;9.058;2023-03-14T15:39:33;7.00;99.90
14786;DHT22;7484;49.906;9.058;2023-03-14T15:42:00;7.00;99.90
14786;DHT22;7484;49.906;9.058;2023-03-14T15:44:28;7.00;99.90
14786;DHT22;7484;49.906;9.058;2023-03-14T15:46:55;7.00;99.90
14786;DHT22;7484;49.906;9.058;2023-03-14T15:49:22;7.00;99.90
14786;DHT22;7484;49.906;9.058;2023-03-14T15:51:48;7.00;99.90
14786;DHT22;7484;49.906;9.058;2023-03-14T15:54:15;7.00;99.90
14786;DHT22;7484;49.906;9.058;2023-03-14T15:56:42;7.10;99.90
14786;DHT22;7484;49.906;9.058;2023-03-14T15:59:09;7.10;99.90
14786;DHT22;7484;49.906;9.058;2023-03-14T16:01:37;7.10;99.90
14786;DHT22;7484;49.906;9.058;2023-03-14T16:04:04;7.00;99.90
14786;DHT22;7484;49.906;9.058;2023-03-14T16:06:31;7.00;99.90
14786;DHT22;7484;49.906;9.058;2023-03-14T16:08:57;7.10;99.90
14786;DHT22;7484;49.906;9.058;2023-03-14T16:11:25;7.10;99.90
14786;DHT22;7484;49.906;9.058;2023-03-14T16:13:51;7.10;99.90
14786;DHT22;7484;49.906;9.058;2023-03-14T16:16:18;7.10;99.90
14786;DHT22;7484;49.906;9.058;2023-03-14T16:18:46;7.10;99.90
14786;DHT22;7484;49.906;9.058;2023-03-14T16:21:15;7.10;99.90